sensor_id;sensor_type;location;lat;lon;timestamp;pressure;altitude;pressure_sealevel;temperature;humidity
72414;BME280;60995;52.154;4.498;2023-11-19T00:01:32;101507.75;;;14.84;100.00
72414;BME280;60995;52.154;4.498;2023-11-19T00:03:48;101516.94;;;14.93;100.00
72414;BME280;60995;52.154;4.498;2023-11-19T00:06:06;101521.41;;;14.94;100.00
72414;BME280;60995;52.154;4.498;2023-11-19T00:08:25;101532.59;;;14.91;100.00
72414;BME280;60995;52.154;4.498;2023-11-19T00:10:43;101523.72;;;14.89;100.00
72414;BME280;60995;52.154;4.498;2023-11-19T00:12:59;101527.47;;;14.78;100.00
72414;BME280;60995;52.154;4.498;2023-11-19T00:15:16;101534.38;;;14.82;100.00
72414;BME280;60995;52.154;4.498;2023-11-19T00:17:34;101531.34;;;14.85;100.00
72414;BME280;60995;52.154;4.498;2023-11-19T00:19:50;101516.69;;;14.77;100.00
72414;BME280;60995;52.154;4.498;2023-11-19T00:22:07;101520.88;;;14.71;100.00
72414;BME280;60995;52.154;4.498;2023-11-19T00:24:23;101515.44;;;14.71;100.00
72414;BME280;60995;52.154;4.498;2023-11-19T00:26:39;101521.16;;;14.78;100.00
72414;BME280;60995;52.154;4.498;2023-11-19T00:28:56;101522.31;;;14.75;100.00
72414;BME280;60995;52.154;4.498;2023-11-19T00:31:13;101519.47;;;14.67;100.00
72414;BME280;60995;52.154;4.498;2023-11-19T00:33:29;101531.56;;;14.64;100.00
72414;BME280;60995;52.154;4.498;2023-11-19T00:35:47;101541.16;;;14.68;100.00
72414;BME280;60995;52.154;4.498;2023-11-19T00:38:04;101554.50;;;14.71;100.00
72414;BME280;60995;52.154;4.498;2023-11-19T00:40:21;101544.19;;;14.65;100.00
72414;BME280;60995;52.154;4.498;2023-11-19T00:42:38;101538.84;;;14.74;100.00
72414;BME280;60995;52.154;4.498;2023-11-19T00:44:55;101543.91;;;14.68;100.00
72414;BME280;60995;52.154;4.498;2023-11-19T00:47:11;101555.13;;;14.65;100.00
72414;BME280;60995;52.154;4.498;2023-11-19T00:49:28;101553.41;;;14.64;100.00
72414;BME280;60995;52.154;4.498;2023-11-19T00:51:44;101540.44;;;14.66;100.00
72414;BME280;60995;52.154;4.498;2023-11-19T00:54:01;101521.31;;;14.66;100.00
72414;BME280;60995;52.154;4.498;2023-11-19T00:56:17;101513.97;;;14.57;100.00
72414;BME280;60995;52.154;4.498;2023-11-19T00:58:35;101518.88;;;14.63;100.00
72414;BME280;60995;52.154;4.498;2023-11-19T01:00:53;101526.31;;;14.61;100.00
72414;BME280;60995;52.154;4.498;2023-11-19T01:03:10;101511.66;;;14.62;100.00
72414;BME280;60995;52.154;4.498;2023-11-19T01:05:27;101496.44;;;14.60;100.00
72414;BME280;60995;52.154;4.498;2023-11-19T01:07:44;101487.84;;;14.64;100.00
72414;BME280;60995;52.154;4.498;2023-11-19T01:10:00;101471.16;;;14.67;100.00
72414;BME280;60995;52.154;4.498;2023-11-19T01:12:16;101459.78;;;14.62;100.00
72414;BME280;60995;52.154;4.498;2023-11-19T01:14:33;101454.78;;;14.48;100.00
72414;BME280;60995;52.154;4.498;2023-11-19T01:16:49;101463.72;;;14.50;100.00
72414;BME280;60995;52.154;4.498;2023-11-19T01:19:07;101452.78;;;14.50;100.00
72414;BME280;60995;52.154;4.498;2023-11-19T01:21:23;101458.66;;;14.55;100.00
72414;BME280;60995;52.154;4.498;2023-11-19T01:23:40;101445.34;;;14.42;100.00
72414;BME280;60995;52.154;4.498;2023-11-19T01:25:59;101441.31;;;14.36;100.00
72414;BME280;60995;52.154;4.498;2023-11-19T01:28:15;101436.72;;;14.37;100.00
72414;BME280;60995;52.154;4.498;2023-11-19T01:30:31;101432.69;;;14.31;100.00
72414;BME280;60995;52.154;4.498;2023-11-19T01:32:48;101415.78;;;14.28;100.00
72414;BME280;60995;52.154;4.498;2023-11-19T01:35:04;101421.09;;;14.29;100.00
72414;BME280;60995;52.154;4.498;2023-11-19T01:37:20;101416.63;;;14.28;100.00
72414;BME280;60995;52.154;4.498;2023-11-19T01:39:37;101429.53;;;14.36;100.00
72414;BME280;60995;52.154;4.498;2023-11-19T01:41:53;101410.00;;;14.31;100.00
72414;BME280;60995;52.154;4.498;2023-11-19T01:44:10;101399.72;;;14.15;100.00
72414;BME280;60995;52.154;4.498;2023-11-19T01:46:29;101414.63;;;14.20;100.00
72414;BME280;60995;52.154;4.498;2023-11-19T01:48:48;101396.56;;;14.10;100.00
72414;BME280;60995;52.154;4.498;2023-11-19T01:51:05;101404.28;;;14.24;100.00
72414;BME280;60995;52.154;4.498;2023-11-19T01:53:23;101391.22;;;14.18;100.00
72414;BME280;60995;52.154;4.498;2023-11-19T01:55:39;101392.84;;;14.11;100.00
72414;BME280;60995;52.154;4.498;2023-11-19T01:58:00;101383.50;;;14.03;100.00
72414;BME280;60995;52.154;4.498;2023-11-19T02:00:18;101388.53;;;14.08;100.00
72414;BME280;60995;52.154;4.498;2023-11-19T02:02:35;101395.44;;;14.02;100.00
72414;BME280;60995;52.154;4.498;2023-11-19T02:04:52;101405.50;;;14.02;100.00
72414;BME280;60995;52.154;4.498;2023-11-19T02:07:09;101409.94;;;13.93;100.00
72414;BME280;60995;52.154;4.498;2023-11-19T02:09:26;101409.25;;;13.91;100.00
72414;BME280;60995;52.154;4.498;2023-11-19T02:11:42;101406.94;;;13.96;100.00
72414;BME280;60995;52.154;4.498;2023-11-19T02:13:59;101403.91;;;13.99;100.00
72414;BME280;60995;52.154;4.498;2023-11-19T02:16:15;101396.31;;;14.03;100.00
72414;BME280;60995;52.154;4.498;2023-11-19T02:18:32;101389.13;;;13.92;100.00
72414;BME280;60995;52.154;4.498;2023-11-19T02:20:49;101374.47;;;13.93;100.00
72414;BME280;60995;52.154;4.498;2023-11-19T02:23:06;101323.97;;;13.89;100.00
72414;BME280;60995;52.154;4.498;2023-11-19T02:25:30;101322.06;;;13.89;100.00
72414;BME280;60995;52.154;4.498;2023-11-19T02:27:53;101296.38;;;13.92;100.00
72414;BME280;60995;52.154;4.498;2023-11-19T02:30:12;101284.34;;;13.85;100.00
72414;BME280;60995;52.154;4.498;2023-11-19T02:32:48;101299.28;;;13.81;100.00
72414;BME280;60995;52.154;4.498;2023-11-19T02:35:05;101295.00;;;13.78;100.00
72414;BME280;60995;52.154;4.498;2023-11-19T02:37:23;101304.03;;;13.79;100.00
72414;BME280;60995;52.154;4.498;2023-11-19T02:39:40;101293.13;;;13.79;100.00
72414;BME280;60995;52.154;4.498;2023-11-19T02:41:58;101289.81;;;13.75;100.00
72414;BME280;60995;52.154;4.498;2023-11-19T02:44:16;101297.88;;;13.77;100.00
72414;BME280;60995;52.154;4.498;2023-11-19T02:46:33;101290.53;;;13.77;100.00
72414;BME280;60995;52.154;4.498;2023-11-19T02:48:49;101271.19;;;13.61;100.00
72414;BME280;60995;52.154;4.498;2023-11-19T02:51:05;101267.72;;;13.68;100.00
72414;BME280;60995;52.154;4.498;2023-11-19T02:53:25;101260.28;;;13.70;100.00
72414;BME280;60995;52.154;4.498;2023-11-19T02:55:44;101276.34;;;13.73;100.00
72414;BME280;60995;52.154;4.498;2023-11-19T02:58:04;101274.50;;;13.64;100.00
72414;BME280;60995;52.154;4.498;2023-11-19T03:00:35;101274.06;;;13.69;100.00
72414;BME280;60995;52.154;4.498;2023-11-19T03:02:55;101268.31;;;13.62;100.00
72414;BME280;60995;52.154;4.498;2023-11-19T03:05:15;101274.91;;;13.69;100.00
72414;BME280;60995;52.154;4.498;2023-11-19T03:07:32;101268.94;;;13.56;100.00
72414;BME280;60995;52.154;4.498;2023-11-19T03:09:48;101254.25;;;13.57;100.00
72414;BME280;60995;52.154;4.498;2023-11-19T03:12:05;101253.13;;;13.60;100.00
72414;BME280;60995;52.154;4.498;2023-11-19T03:14:23;101251.69;;;13.65;100.00
72414;BME280;60995;52.154;4.498;2023-11-19T03:16:39;101242.94;;;13.62;100.00
72414;BME280;60995;52.154;4.498;2023-11-19T03:18:55;101222.44;;;13.57;100.00
72414;BME280;60995;52.154;4.498;2023-11-19T03:21:12;101221.03;;;13.44;100.00
72414;BME280;60995;52.154;4.498;2023-11-19T03:23:28;101215.56;;;13.44;100.00
72414;BME280;60995;52.154;4.498;2023-11-19T03:25:45;101233.06;;;13.51;100.00
72414;BME280;60995;52.154;4.498;2023-11-19T03:28:02;101235.94;;;13.49;100.00
72414;BME280;60995;52.154;4.498;2023-11-19T03:30:20;101230.19;;;13.43;100.00
72414;BME280;60995;52.154;4.498;2023-11-19T03:32:37;101208.97;;;13.46;100.00
72414;BME280;60995;52.154;4.498;2023-11-19T03:34:54;101234.50;;;13.55;100.00
72414;BME280;60995;52.154;4.498;2023-11-19T03:37:11;101237.78;;;13.49;100.00
72414;BME280;60995;52.154;4.498;2023-11-19T03:39:28;101235.38;;;13.46;100.00
72414;BME280;60995;52.154;4.498;2023-11-19T03:41:45;101236.25;;;13.36;100.00
72414;BME280;60995;52.154;4.498;2023-11-19T03:44:04;101235.09;;;13.39;100.00
72414;BME280;60995;52.154;4.498;2023-11-19T03:46:21;101241.56;;;13.38;100.00
72414;BME280;60995;52.154;4.498;2023-11-19T03:48:37;101239.69;;;13.38;100.00
72414;BME280;60995;52.154;4.498;2023-11-19T03:50:55;101228.94;;;13.27;100.00
72414;BME280;60995;52.154;4.498;2023-11-19T03:53:12;101241.41;;;13.39;100.00
72414;BME280;60995;52.154;4.498;2023-11-19T03:55:28;101242.25;;;13.40;100.00
72414;BME280;60995;52.154;4.498;2023-11-19T03:57:45;101240.22;;;13.32;100.00
72414;BME280;60995;52.154;4.498;2023-11-19T04:00:03;101237.94;;;13.28;100.00
72414;BME280;60995;52.154;4.498;2023-11-19T04:02:26;101230.91;;;13.25;100.00
72414;BME280;60995;52.154;4.498;2023-11-19T04:04:43;101231.03;;;13.33;100.00
72414;BME280;60995;52.154;4.498;2023-11-19T04:07:00;101224.91;;;13.31;100.00
72414;BME280;60995;52.154;4.498;2023-11-19T04:09:19;101239.53;;;13.30;100.00
72414;BME280;60995;52.154;4.498;2023-11-19T04:11:35;101245.13;;;13.29;100.00
72414;BME280;60995;52.154;4.498;2023-11-19T04:13:51;101231.91;;;13.34;100.00
72414;BME280;60995;52.154;4.498;2023-11-19T04:16:08;101218.41;;;13.32;100.00
72414;BME280;60995;52.154;4.498;2023-11-19T04:18:25;101225.91;;;13.30;100.00
72414;BME280;60995;52.154;4.498;2023-11-19T04:20:41;101206.41;;;13.25;100.00
72414;BME280;60995;52.154;4.498;2023-11-19T04:23:00;101196.06;;;13.38;100.00
72414;BME280;60995;52.154;4.498;2023-11-19T04:25:17;101194.63;;;13.34;100.00
72414;BME280;60995;52.154;4.498;2023-11-19T04:27:35;101190.88;;;13.35;100.00
72414;BME280;60995;52.154;4.498;2023-11-19T04:29:51;101181.28;;;13.41;100.00
72414;BME280;60995;52.154;4.498;2023-11-19T04:32:10;101168.22;;;13.35;100.00
72414;BME280;60995;52.154;4.498;2023-11-19T04:34:26;101177.53;;;13.32;100.00
72414;BME280;60995;52.154;4.498;2023-11-19T04:36:42;101169.94;;;13.36;100.00
72414;BME280;60995;52.154;4.498;2023-11-19T04:39:00;101152.88;;;13.34;100.00
72414;BME280;60995;52.154;4.498;2023-11-19T04:41:17;101164.47;;;13.36;100.00
72414;BME280;60995;52.154;4.498;2023-11-19T04:43:33;101157.66;;;13.22;100.00
72414;BME280;60995;52.154;4.498;2023-11-19T04:45:49;101169.66;;;13.29;100.00
72414;BME280;60995;52.154;4.498;2023-11-19T04:48:06;101178.56;;;13.31;100.00
72414;BME280;60995;52.154;4.498;2023-11-19T04:50:22;101180.00;;;13.35;100.00
72414;BME280;60995;52.154;4.498;2023-11-19T04:52:39;101180.84;;;13.36;100.00
72414;BME280;60995;52.154;4.498;2023-11-19T04:55:00;101168.38;;;13.33;100.00
72414;BME280;60995;52.154;4.498;2023-11-19T04:57:17;101181.16;;;13.23;100.00
72414;BME280;60995;52.154;4.498;2023-11-19T04:59:34;101178.25;;;13.34;100.00
72414;BME280;60995;52.154;4.498;2023-11-19T05:01:50;101170.81;;;13.27;100.00
72414;BME280;60995;52.154;4.498;2023-11-19T05:04:07;101161.34;;;13.31;100.00
72414;BME280;60995;52.154;4.498;2023-11-19T05:06:33;101166.78;;;13.31;100.00
72414;BME280;60995;52.154;4.498;2023-11-19T05:08:51;101160.50;;;13.30;100.00
72414;BME280;60995;52.154;4.498;2023-11-19T05:11:07;101157.66;;;13.22;100.00
72414;BME280;60995;52.154;4.498;2023-11-19T05:13:23;101143.31;;;13.20;100.00
72414;BME280;60995;52.154;4.498;2023-11-19T05:15:39;101146.03;;;13.20;100.00
72414;BME280;60995;52.154;4.498;2023-11-19T05:17:56;101157.94;;;13.19;100.00
72414;BME280;60995;52.154;4.498;2023-11-19T05:20:12;101161.06;;;13.24;100.00
72414;BME280;60995;52.154;4.498;2023-11-19T05:22:31;101158.34;;;13.24;100.00
72414;BME280;60995;52.154;4.498;2023-11-19T05:24:48;101155.03;;;13.30;100.00
72414;BME280;60995;52.154;4.498;2023-11-19T05:27:05;101151.59;;;13.28;100.00
72414;BME280;60995;52.154;4.498;2023-11-19T05:29:22;101156.78;;;13.31;100.00
72414;BME280;60995;52.154;4.498;2023-11-19T05:31:39;101154.31;;;13.28;100.00
72414;BME280;60995;52.154;4.498;2023-11-19T05:33:55;101157.22;;;13.17;100.00
72414;BME280;60995;52.154;4.498;2023-11-19T05:36:12;101159.06;;;13.26;100.00
72414;BME280;60995;52.154;4.498;2023-11-19T05:38:28;101164.38;;;13.28;100.00
72414;BME280;60995;52.154;4.498;2023-11-19T05:40:45;101159.50;;;13.31;100.00
72414;BME280;60995;52.154;4.498;2023-11-19T05:43:04;101163.69;;;13.16;100.00
72414;BME280;60995;52.154;4.498;2023-11-19T05:45:23;101162.53;;;13.18;100.00
72414;BME280;60995;52.154;4.498;2023-11-19T05:47:41;101154.78;;;13.14;100.00
72414;BME280;60995;52.154;4.498;2023-11-19T05:49:57;101151.06;;;13.15;100.00
72414;BME280;60995;52.154;4.498;2023-11-19T05:52:14;101130.69;;;13.19;100.00
72414;BME280;60995;52.154;4.498;2023-11-19T05:54:30;101139.44;;;13.13;100.00
72414;BME280;60995;52.154;4.498;2023-11-19T05:56:49;101144.50;;;13.07;100.00
72414;BME280;60995;52.154;4.498;2023-11-19T05:59:06;101148.75;;;13.10;100.00
72414;BME280;60995;52.154;4.498;2023-11-19T06:01:30;101131.16;;;13.04;100.00
72414;BME280;60995;52.154;4.498;2023-11-19T06:03:47;101145.34;;;13.08;100.00
72414;BME280;60995;52.154;4.498;2023-11-19T06:06:06;101145.03;;;13.11;100.00
72414;BME280;60995;52.154;4.498;2023-11-19T06:08:22;101149.38;;;13.04;100.00
72414;BME280;60995;52.154;4.498;2023-11-19T06:10:40;101133.88;;;13.04;100.00
72414;BME280;60995;52.154;4.498;2023-11-19T06:13:00;101141.47;;;13.11;100.00
72414;BME280;60995;52.154;4.498;2023-11-19T06:15:16;101133.28;;;13.11;100.00
72414;BME280;60995;52.154;4.498;2023-11-19T06:17:32;101144.72;;;13.24;100.00
72414;BME280;60995;52.154;4.498;2023-11-19T06:19:50;101130.66;;;13.38;100.00
72414;BME280;60995;52.154;4.498;2023-11-19T06:22:06;101135.56;;;13.25;100.00
72414;BME280;60995;52.154;4.498;2023-11-19T06:24:24;101142.31;;;13.21;100.00
72414;BME280;60995;52.154;4.498;2023-11-19T06:26:40;101139.38;;;13.32;100.00
72414;BME280;60995;52.154;4.498;2023-11-19T06:28:56;101142.72;;;13.26;100.00
72414;BME280;60995;52.154;4.498;2023-11-19T06:31:13;101142.16;;;13.22;100.00
72414;BME280;60995;52.154;4.498;2023-11-19T06:33:31;101154.34;;;13.18;100.00
72414;BME280;60995;52.154;4.498;2023-11-19T06:35:48;101154.22;;;13.20;100.00
72414;BME280;60995;52.154;4.498;2023-11-19T06:38:05;101150.84;;;13.36;100.00
72414;BME280;60995;52.154;4.498;2023-11-19T06:40:21;101156.50;;;13.24;100.00
72414;BME280;60995;52.154;4.498;2023-11-19T06:42:38;101147.72;;;13.31;100.00
72414;BME280;60995;52.154;4.498;2023-11-19T06:44:54;101153.63;;;13.26;100.00
72414;BME280;60995;52.154;4.498;2023-11-19T06:47:13;101154.19;;;13.30;100.00
72414;BME280;60995;52.154;4.498;2023-11-19T06:49:29;101155.91;;;13.40;100.00
72414;BME280;60995;52.154;4.498;2023-11-19T06:51:45;101161.34;;;13.40;100.00
72414;BME280;60995;52.154;4.498;2023-11-19T06:54:02;101158.78;;;13.39;100.00
72414;BME280;60995;52.154;4.498;2023-11-19T06:56:22;101153.28;;;13.49;100.00
72414;BME280;60995;52.154;4.498;2023-11-19T06:58:39;101140.38;;;13.51;100.00
72414;BME280;60995;52.154;4.498;2023-11-19T07:00:56;101146.53;;;13.53;100.00
72414;BME280;60995;52.154;4.498;2023-11-19T07:03:12;101156.13;;;13.57;100.00
72414;BME280;60995;52.154;4.498;2023-11-19T07:05:29;101148.16;;;13.73;100.00
72414;BME280;60995;52.154;4.498;2023-11-19T07:07:46;101144.84;;;13.80;100.00
72414;BME280;60995;52.154;4.498;2023-11-19T07:10:03;101139.72;;;13.67;100.00
72414;BME280;60995;52.154;4.498;2023-11-19T07:12:20;101135.09;;;13.77;100.00
72414;BME280;60995;52.154;4.498;2023-11-19T07:14:37;101134.25;;;13.77;100.00
72414;BME280;60995;52.154;4.498;2023-11-19T07:16:53;101142.72;;;13.73;100.00
72414;BME280;60995;52.154;4.498;2023-11-19T07:19:10;101138.66;;;13.78;100.00
72414;BME280;60995;52.154;4.498;2023-11-19T07:21:26;101148.75;;;13.67;100.00
72414;BME280;60995;52.154;4.498;2023-11-19T07:23:45;101142.03;;;13.62;100.00
72414;BME280;60995;52.154;4.498;2023-11-19T07:26:05;101135.13;;;13.67;100.00
72414;BME280;60995;52.154;4.498;2023-11-19T07:28:24;101136.66;;;13.52;100.00
72414;BME280;60995;52.154;4.498;2023-11-19T07:30:40;101134.03;;;13.60;100.00
72414;BME280;60995;52.154;4.498;2023-11-19T07:32:57;101136.66;;;13.80;100.00
72414;BME280;60995;52.154;4.498;2023-11-19T07:35:14;101134.59;;;13.64;100.00
72414;BME280;60995;52.154;4.498;2023-11-19T07:37:34;101149.47;;;13.69;100.00
72414;BME280;60995;52.154;4.498;2023-11-19T07:39:51;101148.34;;;13.62;100.00
72414;BME280;60995;52.154;4.498;2023-11-19T07:42:07;101143.72;;;13.72;100.00
72414;BME280;60995;52.154;4.498;2023-11-19T07:44:25;101139.81;;;13.75;100.00
72414;BME280;60995;52.154;4.498;2023-11-19T07:46:41;101117.66;;;13.88;100.00
72414;BME280;60995;52.154;4.498;2023-11-19T07:49:00;101118.78;;;13.95;100.00
72414;BME280;60995;52.154;4.498;2023-11-19T07:51:18;101118.25;;;14.10;100.00
72414;BME280;60995;52.154;4.498;2023-11-19T07:53:35;101107.34;;;14.10;100.00
72414;BME280;60995;52.154;4.498;2023-11-19T07:55:54;101096.22;;;14.21;100.00
72414;BME280;60995;52.154;4.498;2023-11-19T07:58:10;101091.44;;;14.23;100.00
72414;BME280;60995;52.154;4.498;2023-11-19T08:00:27;101095.28;;;14.30;100.00
72414;BME280;60995;52.154;4.498;2023-11-19T08:02:43;101091.28;;;14.43;100.00
72414;BME280;60995;52.154;4.498;2023-11-19T08:04:59;101080.50;;;14.77;100.00
72414;BME280;60995;52.154;4.498;2023-11-19T08:07:17;101078.53;;;15.14;100.00
72414;BME280;60995;52.154;4.498;2023-11-19T08:09:34;101046.53;;;15.06;100.00
72414;BME280;60995;52.154;4.498;2023-11-19T08:11:53;101058.66;;;15.38;100.00
72414;BME280;60995;52.154;4.498;2023-11-19T08:14:12;101044.72;;;15.15;100.00
72414;BME280;60995;52.154;4.498;2023-11-19T08:16:28;101051.69;;;15.09;100.00
72414;BME280;60995;52.154;4.498;2023-11-19T08:18:45;101043.31;;;15.11;100.00
72414;BME280;60995;52.154;4.498;2023-11-19T08:21:04;101064.25;;;14.76;100.00
72414;BME280;60995;52.154;4.498;2023-11-19T08:23:20;101063.41;;;15.01;100.00
72414;BME280;60995;52.154;4.498;2023-11-19T08:25:39;101053.84;;;14.97;100.00
72414;BME280;60995;52.154;4.498;2023-11-19T08:27:55;101066.91;;;15.12;100.00
72414;BME280;60995;52.154;4.498;2023-11-19T08:30:12;101078.28;;;14.81;100.00
72414;BME280;60995;52.154;4.498;2023-11-19T08:32:29;101094.44;;;14.56;100.00
72414;BME280;60995;52.154;4.498;2023-11-19T08:34:48;101093.38;;;14.49;100.00
72414;BME280;60995;52.154;4.498;2023-11-19T08:37:07;101097.56;;;14.61;100.00
72414;BME280;60995;52.154;4.498;2023-11-19T08:39:23;101095.97;;;14.68;100.00
72414;BME280;60995;52.154;4.498;2023-11-19T08:41:40;101093.25;;;14.95;100.00
72414;BME280;60995;52.154;4.498;2023-11-19T08:43:57;101076.47;;;15.16;100.00
72414;BME280;60995;52.154;4.498;2023-11-19T08:46:13;101075.88;;;15.30;100.00
72414;BME280;60995;52.154;4.498;2023-11-19T08:48:30;101071.06;;;15.24;100.00
72414;BME280;60995;52.154;4.498;2023-11-19T08:50:48;101068.97;;;15.18;100.00
72414;BME280;60995;52.154;4.498;2023-11-19T08:53:08;101072.41;;;15.20;100.00
72414;BME280;60995;52.154;4.498;2023-11-19T08:55:24;101074.97;;;15.56;100.00
72414;BME280;60995;52.154;4.498;2023-11-19T08:57:45;101034.75;;;15.83;100.00
72414;BME280;60995;52.154;4.498;2023-11-19T09:00:04;101027.97;;;16.28;100.00
72414;BME280;60995;52.154;4.498;2023-11-19T09:02:29;100994.03;;;16.70;100.00
72414;BME280;60995;52.154;4.498;2023-11-19T09:04:45;101002.63;;;16.34;100.00
72414;BME280;60995;52.154;4.498;2023-11-19T09:07:01;101013.25;;;16.29;100.00
72414;BME280;60995;52.154;4.498;2023-11-19T09:09:17;101021.13;;;16.08;100.00
72414;BME280;60995;52.154;4.498;2023-11-19T09:11:34;101024.38;;;16.19;100.00
72414;BME280;60995;52.154;4.498;2023-11-19T09:13:50;101034.09;;;15.97;100.00
72414;BME280;60995;52.154;4.498;2023-11-19T09:16:06;101024.72;;;16.25;100.00
72414;BME280;60995;52.154;4.498;2023-11-19T09:18:23;101042.84;;;15.58;100.00
72414;BME280;60995;52.154;4.498;2023-11-19T09:20:39;101060.25;;;15.14;100.00
72414;BME280;60995;52.154;4.498;2023-11-19T09:22:55;101062.72;;;15.26;100.00
72414;BME280;60995;52.154;4.498;2023-11-19T09:25:11;101076.97;;;15.46;100.00
72414;BME280;60995;52.154;4.498;2023-11-19T09:27:32;101072.75;;;15.25;100.00
72414;BME280;60995;52.154;4.498;2023-11-19T09:29:48;101067.66;;;15.30;100.00
72414;BME280;60995;52.154;4.498;2023-11-19T09:32:07;101072.00;;;15.41;100.00
72414;BME280;60995;52.154;4.498;2023-11-19T09:34:23;101076.75;;;15.31;100.00
72414;BME280;60995;52.154;4.498;2023-11-19T09:36:39;101079.34;;;15.41;100.00
72414;BME280;60995;52.154;4.498;2023-11-19T09:39:02;101069.94;;;15.78;100.00
72414;BME280;60995;52.154;4.498;2023-11-19T09:41:20;101066.97;;;16.22;100.00
72414;BME280;60995;52.154;4.498;2023-11-19T09:43:38;101022.94;;;16.81;100.00
72414;BME280;60995;52.154;4.498;2023-11-19T09:45:56;101031.72;;;16.44;100.00
72414;BME280;60995;52.154;4.498;2023-11-19T09:48:24;101061.94;;;15.50;100.00
72414;BME280;60995;52.154;4.498;2023-11-19T09:50:42;101065.66;;;15.75;100.00
72414;BME280;60995;52.154;4.498;2023-11-19T09:52:58;101069.50;;;15.91;100.00
72414;BME280;60995;52.154;4.498;2023-11-19T09:55:14;101031.88;;;16.67;100.00
72414;BME280;60995;52.154;4.498;2023-11-19T09:57:32;101000.53;;;16.94;100.00
72414;BME280;60995;52.154;4.498;2023-11-19T09:59:53;101005.81;;;17.75;100.00
72414;BME280;60995;52.154;4.498;2023-11-19T10:02:10;101025.72;;;16.73;100.00
72414;BME280;60995;52.154;4.498;2023-11-19T10:04:30;101045.22;;;16.04;100.00
72414;BME280;60995;52.154;4.498;2023-11-19T10:06:51;101074.63;;;16.02;100.00
72414;BME280;60995;52.154;4.498;2023-11-19T10:09:08;101083.59;;;16.37;100.00
72414;BME280;60995;52.154;4.498;2023-11-19T10:11:24;101041.06;;;17.15;100.00
72414;BME280;60995;52.154;4.498;2023-11-19T10:13:40;101006.38;;;17.71;100.00
72414;BME280;60995;52.154;4.498;2023-11-19T10:15:58;100985.47;;;18.16;100.00
72414;BME280;60995;52.154;4.498;2023-11-19T10:18:14;100973.69;;;17.84;100.00
72414;BME280;60995;52.154;4.498;2023-11-19T10:20:37;100979.41;;;17.74;100.00
72414;BME280;60995;52.154;4.498;2023-11-19T10:22:56;100964.56;;;18.15;100.00
72414;BME280;60995;52.154;4.498;2023-11-19T10:25:24;100953.94;;;18.12;100.00
72414;BME280;60995;52.154;4.498;2023-11-19T10:27:41;100954.00;;;18.27;100.00
72414;BME280;60995;52.154;4.498;2023-11-19T10:30:01;100932.81;;;18.65;100.00
72414;BME280;60995;52.154;4.498;2023-11-19T10:32:17;100916.03;;;18.60;100.00
72414;BME280;60995;52.154;4.498;2023-11-19T10:34:33;100929.47;;;18.40;100.00
72414;BME280;60995;52.154;4.498;2023-11-19T10:36:50;100933.31;;;17.69;100.00
72414;BME280;60995;52.154;4.498;2023-11-19T10:39:06;100937.56;;;17.49;100.00
72414;BME280;60995;52.154;4.498;2023-11-19T10:41:32;100938.19;;;17.59;100.00
72414;BME280;60995;52.154;4.498;2023-11-19T10:43:49;100916.31;;;17.51;100.00
72414;BME280;60995;52.154;4.498;2023-11-19T10:46:10;100925.38;;;17.75;100.00
72414;BME280;60995;52.154;4.498;2023-11-19T10:48:27;100925.56;;;17.18;100.00
72414;BME280;60995;52.154;4.498;2023-11-19T10:50:45;100932.00;;;17.57;100.00
72414;BME280;60995;52.154;4.498;2023-11-19T10:53:06;100924.16;;;17.54;100.00
72414;BME280;60995;52.154;4.498;2023-11-19T10:55:28;100946.94;;;17.55;100.00
72414;BME280;60995;52.154;4.498;2023-11-19T10:57:51;100915.25;;;17.75;100.00
72414;BME280;60995;52.154;4.498;2023-11-19T11:00:17;100926.47;;;17.11;100.00
72414;BME280;60995;52.154;4.498;2023-11-19T11:02:41;100945.16;;;17.07;100.00
72414;BME280;60995;52.154;4.498;2023-11-19T11:04:59;100957.28;;;16.32;100.00
72414;BME280;60995;52.154;4.498;2023-11-19T11:07:18;100979.19;;;15.91;100.00
72414;BME280;60995;52.154;4.498;2023-11-19T11:09:41;100991.34;;;16.21;100.00
72414;BME280;60995;52.154;4.498;2023-11-19T11:11:59;100991.50;;;15.95;100.00
72414;BME280;60995;52.154;4.498;2023-11-19T11:14:17;100980.03;;;15.99;100.00
72414;BME280;60995;52.154;4.498;2023-11-19T11:16:37;100975.59;;;16.07;100.00
72414;BME280;60995;52.154;4.498;2023-11-19T11:18:58;100951.63;;;16.33;100.00
72414;BME280;60995;52.154;4.498;2023-11-19T11:21:17;100944.78;;;16.29;100.00
72414;BME280;60995;52.154;4.498;2023-11-19T11:29:51;100970.13;;;16.15;100.00
72414;BME280;60995;52.154;4.498;2023-11-19T11:32:43;100955.06;;;15.94;100.00
72414;BME280;60995;52.154;4.498;2023-11-19T11:35:24;100947.53;;;16.21;100.00
72414;BME280;60995;52.154;4.498;2023-11-19T11:38:11;100961.94;;;15.98;100.00
72414;BME280;60995;52.154;4.498;2023-11-19T11:40:30;100958.44;;;15.80;100.00
72414;BME280;60995;52.154;4.498;2023-11-19T11:42:47;100964.47;;;15.83;100.00
72414;BME280;60995;52.154;4.498;2023-11-19T11:45:08;100978.00;;;16.10;100.00
72414;BME280;60995;52.154;4.498;2023-11-19T11:47:26;100963.78;;;15.90;100.00
72414;BME280;60995;52.154;4.498;2023-11-19T11:50:07;100976.28;;;15.84;100.00
72414;BME280;60995;52.154;4.498;2023-11-19T11:52:25;100971.44;;;15.78;100.00
72414;BME280;60995;52.154;4.498;2023-11-19T11:54:42;100972.84;;;15.82;100.00
72414;BME280;60995;52.154;4.498;2023-11-19T11:57:19;100969.25;;;15.90;100.00
72414;BME280;60995;52.154;4.498;2023-11-19T11:59:42;100961.91;;;16.07;100.00